sensor_id;sensor_type;location;lat;lon;timestamp;pressure;altitude;pressure_sealevel;temperature;humidity
7168;BME280;3625;51.762;14.320;2022-12-29T00:00:23;100039.53;;;8.24;100.00
7168;BME280;3625;51.762;14.320;2022-12-29T00:02:52;100036.00;;;8.25;100.00
7168;BME280;3625;51.762;14.320;2022-12-29T00:05:21;100040.38;;;8.26;100.00
7168;BME280;3625;51.762;14.320;2022-12-29T00:07:49;100038.59;;;8.28;100.00
7168;BME280;3625;51.762;14.320;2022-12-29T00:10:17;99952.59;;;7.80;100.00
7168;BME280;3625;51.762;14.320;2022-12-29T00:12:46;100021.88;;;8.29;100.00
7168;BME280;3625;51.762;14.320;2022-12-29T00:15:36;100026.34;;;8.26;100.00
7168;BME280;3625;51.762;14.320;2022-12-29T00:18:08;100016.72;;;8.23;100.00
7168;BME280;3625;51.762;14.320;2022-12-29T00:20:37;99993.19;;;8.14;100.00
7168;BME280;3625;51.762;14.320;2022-12-29T00:23:23;100016.78;;;8.20;100.00
7168;BME280;3625;51.762;14.320;2022-12-29T00:26:13;99997.72;;;8.06;100.00
7168;BME280;3625;51.762;14.320;2022-12-29T00:29:00;100003.69;;;8.16;100.00
7168;BME280;3625;51.762;14.320;2022-12-29T00:31:49;100005.47;;;8.15;100.00
7168;BME280;3625;51.762;14.320;2022-12-29T00:34:36;99959.53;;;7.85;100.00
7168;BME280;3625;51.762;14.320;2022-12-29T00:37:22;100001.16;;;8.11;100.00
7168;BME280;3625;51.762;14.320;2022-12-29T00:40:11;100000.28;;;8.11;100.00
7168;BME280;3625;51.762;14.320;2022-12-29T00:42:57;99993.28;;;8.10;100.00
7168;BME280;3625;51.762;14.320;2022-12-29T00:45:44;99946.34;;;7.85;100.00
7168;BME280;3625;51.762;14.320;2022-12-29T00:48:16;99980.13;;;8.08;100.00
7168;BME280;3625;51.762;14.320;2022-12-29T00:51:06;99891.56;;;7.60;100.00
7168;BME280;3625;51.762;14.320;2022-12-29T00:53:34;99924.41;;;7.85;100.00
7168;BME280;3625;51.762;14.320;2022-12-29T00:56:03;99969.53;;;8.11;100.00
7168;BME280;3625;51.762;14.320;2022-12-29T00:58:31;99958.16;;;8.11;100.00
7168;BME280;3625;51.762;14.320;2022-12-29T01:01:04;99957.28;;;8.10;100.00
7168;BME280;3625;51.762;14.320;2022-12-29T01:03:37;99900.63;;;7.88;100.00
7168;BME280;3625;51.762;14.320;2022-12-29T01:06:07;99925.78;;;8.04;100.00
7168;BME280;3625;51.762;14.320;2022-12-29T01:08:37;99902.47;;;7.84;100.00
7168;BME280;3625;51.762;14.320;2022-12-29T01:11:09;99887.78;;;7.73;100.00
7168;BME280;3625;51.762;14.320;2022-12-29T01:13:37;99938.91;;;8.06;100.00
7168;BME280;3625;51.762;14.320;2022-12-29T01:16:06;99946.88;;;8.04;100.00
7168;BME280;3625;51.762;14.320;2022-12-29T01:18:39;99922.56;;;7.90;100.00
7168;BME280;3625;51.762;14.320;2022-12-29T01:21:07;99900.09;;;7.71;100.00
7168;BME280;3625;51.762;14.320;2022-12-29T01:23:36;99842.75;;;7.43;100.00
7168;BME280;3625;51.762;14.320;2022-12-29T01:26:10;99945.16;;;8.02;100.00
7168;BME280;3625;51.762;14.320;2022-12-29T01:28:38;99926.97;;;7.88;100.00
7168;BME280;3625;51.762;14.320;2022-12-29T01:31:09;99949.53;;;8.03;100.00
7168;BME280;3625;51.762;14.320;2022-12-29T01:33:40;99865.28;;;7.56;100.00
7168;BME280;3625;51.762;14.320;2022-12-29T01:36:15;99914.84;;;7.79;100.00
7168;BME280;3625;51.762;14.320;2022-12-29T01:38:51;99930.31;;;7.96;100.00
7168;BME280;3625;51.762;14.320;2022-12-29T01:41:23;99850.69;;;7.42;100.00
7168;BME280;3625;51.762;14.320;2022-12-29T01:43:54;99912.16;;;7.84;100.00
7168;BME280;3625;51.762;14.320;2022-12-29T01:46:27;99819.19;;;7.37;100.00
7168;BME280;3625;51.762;14.320;2022-12-29T01:49:24;99925.00;;;7.99;100.00
7168;BME280;3625;51.762;14.320;2022-12-29T01:52:01;99914.75;;;7.85;100.00
7168;BME280;3625;51.762;14.320;2022-12-29T01:54:36;99925.81;;;8.03;100.00
7168;BME280;3625;51.762;14.320;2022-12-29T01:57:10;99920.56;;;8.03;100.00
7168;BME280;3625;51.762;14.320;2022-12-29T01:59:49;99878.00;;;7.79;100.00
7168;BME280;3625;51.762;14.320;2022-12-29T02:02:21;99927.44;;;8.08;100.00
7168;BME280;3625;51.762;14.320;2022-12-29T02:04:55;99911.78;;;8.02;100.00
7168;BME280;3625;51.762;14.320;2022-12-29T02:07:31;99921.25;;;8.11;100.00
7168;BME280;3625;51.762;14.320;2022-12-29T02:10:02;99759.09;;;7.16;100.00
7168;BME280;3625;51.762;14.320;2022-12-29T02:12:31;99905.44;;;8.12;100.00
7168;BME280;3625;51.762;14.320;2022-12-29T02:15:02;99910.63;;;8.14;100.00
7168;BME280;3625;51.762;14.320;2022-12-29T02:18:02;99908.00;;;8.14;100.00
7168;BME280;3625;51.762;14.320;2022-12-29T02:24:56;99910.59;;;8.17;100.00
7168;BME280;3625;51.762;14.320;2022-12-29T02:28:22;99853.13;;;7.94;100.00
7168;BME280;3625;51.762;14.320;2022-12-29T02:31:31;99902.44;;;8.27;100.00
7168;BME280;3625;51.762;14.320;2022-12-29T02:34:22;99898.88;;;8.31;100.00
7168;BME280;3625;51.762;14.320;2022-12-29T02:37:03;99740.16;;;7.42;100.00
7168;BME280;3625;51.762;14.320;2022-12-29T02:39:44;99896.19;;;8.35;100.00
7168;BME280;3625;51.762;14.320;2022-12-29T02:42:33;99896.06;;;8.39;100.00
7168;BME280;3625;51.762;14.320;2022-12-29T02:45:15;99896.91;;;8.41;100.00
7168;BME280;3625;51.762;14.320;2022-12-29T02:48:04;99888.94;;;8.44;100.00
7168;BME280;3625;51.762;14.320;2022-12-29T02:50:39;99883.75;;;8.40;100.00
7168;BME280;3625;51.762;14.320;2022-12-29T02:53:15;99810.03;;;7.96;100.00
7168;BME280;3625;51.762;14.320;2022-12-29T02:56:09;99889.63;;;8.52;100.00
7168;BME280;3625;51.762;14.320;2022-12-29T02:58:40;99891.38;;;8.53;100.00
7168;BME280;3625;51.762;14.320;2022-12-29T03:01:30;99890.44;;;8.56;100.00
7168;BME280;3625;51.762;14.320;2022-12-29T03:04:28;99893.91;;;8.56;100.00
7168;BME280;3625;51.762;14.320;2022-12-29T03:07:12;99888.63;;;8.56;100.00
7168;BME280;3625;51.762;14.320;2022-12-29T03:09:54;99828.00;;;8.18;100.00
7168;BME280;3625;51.762;14.320;2022-12-29T03:12:34;99844.50;;;8.26;100.00
7168;BME280;3625;51.762;14.320;2022-12-29T03:18:47;99899.16;;;8.58;100.00
7168;BME280;3625;51.762;14.320;2022-12-29T03:21:29;99895.63;;;8.59;100.00
7168;BME280;3625;51.762;14.320;2022-12-29T03:24:19;99867.00;;;8.42;100.00
7168;BME280;3625;51.762;14.320;2022-12-29T03:27:00;99849.63;;;8.33;100.00
7168;BME280;3625;51.762;14.320;2022-12-29T03:29:44;99865.44;;;8.33;100.00
7168;BME280;3625;51.762;14.320;2022-12-29T03:32:19;99889.34;;;8.64;100.00
7168;BME280;3625;51.762;14.320;2022-12-29T03:34:49;99884.88;;;8.66;100.00
7168;BME280;3625;51.762;14.320;2022-12-29T03:37:26;99882.22;;;8.68;100.00
7168;BME280;3625;51.762;14.320;2022-12-29T03:39:58;99875.22;;;8.65;100.00
7168;BME280;3625;51.762;14.320;2022-12-29T03:42:33;99871.78;;;8.63;100.00
7168;BME280;3625;51.762;14.320;2022-12-29T03:45:09;99846.69;;;8.47;100.00
7168;BME280;3625;51.762;14.320;2022-12-29T03:47:39;99856.16;;;8.56;100.00
7168;BME280;3625;51.762;14.320;2022-12-29T03:50:33;99857.94;;;8.55;100.00
7168;BME280;3625;51.762;14.320;2022-12-29T03:53:10;99841.50;;;8.43;100.00
7168;BME280;3625;51.762;14.320;2022-12-29T03:55:39;99853.53;;;8.56;100.00
7168;BME280;3625;51.762;14.320;2022-12-29T03:58:45;99852.53;;;8.60;100.00
7168;BME280;3625;51.762;14.320;2022-12-29T04:02:08;99852.50;;;8.61;100.00
7168;BME280;3625;51.762;14.320;2022-12-29T04:04:37;99749.25;;;8.06;100.00
7168;BME280;3625;51.762;14.320;2022-12-29T04:07:10;99847.19;;;8.63;100.00
7168;BME280;3625;51.762;14.320;2022-12-29T04:09:41;99840.97;;;8.65;100.00
7168;BME280;3625;51.762;14.320;2022-12-29T04:12:20;99838.22;;;8.70;100.00
7168;BME280;3625;51.762;14.320;2022-12-29T04:14:50;99837.28;;;8.73;100.00
7168;BME280;3625;51.762;14.320;2022-12-29T04:17:21;99846.00;;;8.75;100.00
7168;BME280;3625;51.762;14.320;2022-12-29T04:20:12;99842.50;;;8.74;100.00
7168;BME280;3625;51.762;14.320;2022-12-29T04:23:00;99785.31;;;8.42;100.00
7168;BME280;3625;51.762;14.320;2022-12-29T04:25:32;99809.47;;;8.59;100.00
7168;BME280;3625;51.762;14.320;2022-12-29T04:28:07;99840.88;;;8.70;100.00
7168;BME280;3625;51.762;14.320;2022-12-29T04:30:48;99807.19;;;8.46;100.00
7168;BME280;3625;51.762;14.320;2022-12-29T04:33:37;99701.69;;;7.75;100.00
7168;BME280;3625;51.762;14.320;2022-12-29T04:36:10;99851.38;;;8.72;100.00
7168;BME280;3625;51.762;14.320;2022-12-29T04:38:38;99840.66;;;8.78;100.00
7168;BME280;3625;51.762;14.320;2022-12-29T04:41:42;99835.22;;;8.84;100.00
7168;BME280;3625;51.762;14.320;2022-12-29T04:44:22;99744.06;;;8.40;100.00
7168;BME280;3625;51.762;14.320;2022-12-29T04:47:09;99827.13;;;8.91;100.00
7168;BME280;3625;51.762;14.320;2022-12-29T04:50:10;99827.97;;;8.93;100.00
7168;BME280;3625;51.762;14.320;2022-12-29T04:52:43;99800.06;;;8.83;100.00
7168;BME280;3625;51.762;14.320;2022-12-29T04:55:21;99827.75;;;9.01;100.00
7168;BME280;3625;51.762;14.320;2022-12-29T04:57:51;99825.09;;;9.02;100.00
7168;BME280;3625;51.762;14.320;2022-12-29T05:00:21;99826.75;;;9.06;100.00
7168;BME280;3625;51.762;14.320;2022-12-29T05:02:51;99827.47;;;9.12;100.00
7168;BME280;3625;51.762;14.320;2022-12-29T05:05:21;99830.91;;;9.15;100.00
7168;BME280;3625;51.762;14.320;2022-12-29T05:07:53;99789.25;;;8.94;100.00
7168;BME280;3625;51.762;14.320;2022-12-29T05:10:22;99807.38;;;9.07;100.00
7168;BME280;3625;51.762;14.320;2022-12-29T05:12:54;99829.88;;;9.21;100.00
7168;BME280;3625;51.762;14.320;2022-12-29T05:15:22;99834.22;;;9.23;100.00
7168;BME280;3625;51.762;14.320;2022-12-29T05:17:51;99832.31;;;9.28;100.00
7168;BME280;3625;51.762;14.320;2022-12-29T05:20:20;99808.09;;;9.13;100.00
7168;BME280;3625;51.762;14.320;2022-12-29T05:22:48;99841.03;;;9.32;100.00
7168;BME280;3625;51.762;14.320;2022-12-29T05:25:17;99814.03;;;9.21;100.00
7168;BME280;3625;51.762;14.320;2022-12-29T05:27:59;99837.34;;;9.37;100.00
7168;BME280;3625;51.762;14.320;2022-12-29T05:30:49;99836.28;;;9.43;100.00
7168;BME280;3625;51.762;14.320;2022-12-29T05:33:19;99831.00;;;9.43;100.00
7168;BME280;3625;51.762;14.320;2022-12-29T05:35:50;99838.94;;;9.43;100.00
7168;BME280;3625;51.762;14.320;2022-12-29T05:38:19;99827.47;;;9.44;100.00
7168;BME280;3625;51.762;14.320;2022-12-29T05:40:49;99833.63;;;9.44;100.00
7168;BME280;3625;51.762;14.320;2022-12-29T05:43:54;99830.97;;;9.44;100.00
7168;BME280;3625;51.762;14.320;2022-12-29T05:46:32;99737.44;;;8.91;100.00
7168;BME280;3625;51.762;14.320;2022-12-29T05:49:18;99837.00;;;9.50;100.00
7168;BME280;3625;51.762;14.320;2022-12-29T05:51:57;99829.97;;;9.50;100.00
7168;BME280;3625;51.762;14.320;2022-12-29T05:54:28;99826.41;;;9.51;100.00
7168;BME280;3625;51.762;14.320;2022-12-29T05:56:56;99835.16;;;9.52;100.00
7168;BME280;3625;51.762;14.320;2022-12-29T05:59:27;99827.22;;;9.53;100.00
7168;BME280;3625;51.762;14.320;2022-12-29T06:01:56;99824.56;;;9.53;100.00
7168;BME280;3625;51.762;14.320;2022-12-29T06:04:25;99812.19;;;9.55;100.00
7168;BME280;3625;51.762;14.320;2022-12-29T06:06:53;99776.59;;;9.39;100.00
7168;BME280;3625;51.762;14.320;2022-12-29T06:09:31;99795.69;;;9.49;100.00
7168;BME280;3625;51.762;14.320;2022-12-29T06:12:01;99785.19;;;9.45;100.00
7168;BME280;3625;51.762;14.320;2022-12-29T06:14:31;99806.47;;;9.41;100.00
7168;BME280;3625;51.762;14.320;2022-12-29T06:17:03;99813.50;;;9.40;100.00
7168;BME280;3625;51.762;14.320;2022-12-29T06:19:34;99815.16;;;9.43;100.00
7168;BME280;3625;51.762;14.320;2022-12-29T06:22:03;99752.94;;;9.03;100.00
7168;BME280;3625;51.762;14.320;2022-12-29T06:24:34;99817.75;;;9.46;100.00
7168;BME280;3625;51.762;14.320;2022-12-29T06:27:02;99803.59;;;9.49;100.00
7168;BME280;3625;51.762;14.320;2022-12-29T06:29:32;99800.81;;;9.53;100.00
7168;BME280;3625;51.762;14.320;2022-12-29T06:32:03;99796.34;;;9.55;100.00
7168;BME280;3625;51.762;14.320;2022-12-29T06:34:33;99798.97;;;9.57;100.00
7168;BME280;3625;51.762;14.320;2022-12-29T06:37:02;99652.56;;;8.77;100.00
7168;BME280;3625;51.762;14.320;2022-12-29T06:39:31;99746.84;;;9.34;100.00
7168;BME280;3625;51.762;14.320;2022-12-29T06:42:04;99763.38;;;9.39;100.00
7168;BME280;3625;51.762;14.320;2022-12-29T06:45:08;99791.00;;;9.58;100.00
7168;BME280;3625;51.762;14.320;2022-12-29T06:47:36;99777.03;;;9.53;100.00
7168;BME280;3625;51.762;14.320;2022-12-29T06:50:06;99746.75;;;9.35;100.00
7168;BME280;3625;51.762;14.320;2022-12-29T06:52:35;99800.72;;;9.56;100.00
7168;BME280;3625;51.762;14.320;2022-12-29T06:55:05;99801.84;;;9.48;100.00
7168;BME280;3625;51.762;14.320;2022-12-29T06:57:34;99809.34;;;9.32;100.00
7168;BME280;3625;51.762;14.320;2022-12-29T07:00:03;99804.59;;;9.12;100.00
7168;BME280;3625;51.762;14.320;2022-12-29T07:02:34;99792.72;;;8.96;100.00
7168;BME280;3625;51.762;14.320;2022-12-29T07:05:04;99802.69;;;8.85;100.00
7168;BME280;3625;51.762;14.320;2022-12-29T07:07:34;99805.59;;;8.74;100.00
7168;BME280;3625;51.762;14.320;2022-12-29T07:10:03;99815.47;;;8.66;100.00
7168;BME280;3625;51.762;14.320;2022-12-29T07:12:32;99802.59;;;8.54;100.00
7168;BME280;3625;51.762;14.320;2022-12-29T07:15:00;99799.28;;;8.46;100.00
7168;BME280;3625;51.762;14.320;2022-12-29T07:17:44;99829.91;;;8.50;100.00
7168;BME280;3625;51.762;14.320;2022-12-29T07:20:13;99814.41;;;8.38;100.00
7168;BME280;3625;51.762;14.320;2022-12-29T07:22:42;99790.09;;;8.23;100.00
7168;BME280;3625;51.762;14.320;2022-12-29T07:25:10;99797.13;;;8.23;100.00
7168;BME280;3625;51.762;14.320;2022-12-29T07:27:39;99810.25;;;8.26;100.00
7168;BME280;3625;51.762;14.320;2022-12-29T07:30:09;99818.16;;;8.26;100.00
7168;BME280;3625;51.762;14.320;2022-12-29T07:32:38;99839.13;;;8.32;100.00
7168;BME280;3625;51.762;14.320;2022-12-29T07:35:08;99831.22;;;8.32;100.00
7168;BME280;3625;51.762;14.320;2022-12-29T07:37:37;99827.63;;;8.36;100.00
7168;BME280;3625;51.762;14.320;2022-12-29T07:40:08;99816.94;;;8.42;100.00
7168;BME280;3625;51.762;14.320;2022-12-29T07:42:38;99816.00;;;8.45;100.00
7168;BME280;3625;51.762;14.320;2022-12-29T07:45:12;99816.91;;;8.44;100.00
7168;BME280;3625;51.762;14.320;2022-12-29T07:48:00;99797.78;;;8.36;100.00
7168;BME280;3625;51.762;14.320;2022-12-29T07:50:31;99828.97;;;8.54;100.00
7168;BME280;3625;51.762;14.320;2022-12-29T07:52:59;99786.41;;;8.30;100.00
7168;BME280;3625;51.762;14.320;2022-12-29T07:55:28;99823.72;;;8.52;100.00
7168;BME280;3625;51.762;14.320;2022-12-29T07:57:56;99823.75;;;8.51;100.00
7168;BME280;3625;51.762;14.320;2022-12-29T08:00:25;99785.63;;;8.27;100.00
7168;BME280;3625;51.762;14.320;2022-12-29T08:02:54;99754.47;;;8.09;100.00
7168;BME280;3625;51.762;14.320;2022-12-29T08:05:23;99831.66;;;8.51;100.00
7168;BME280;3625;51.762;14.320;2022-12-29T08:07:54;99836.06;;;8.50;100.00
7168;BME280;3625;51.762;14.320;2022-12-29T08:10:23;99810.88;;;8.39;100.00
7168;BME280;3625;51.762;14.320;2022-12-29T08:12:52;99809.06;;;8.41;100.00
7168;BME280;3625;51.762;14.320;2022-12-29T08:15:26;99824.44;;;8.59;100.00
7168;BME280;3625;51.762;14.320;2022-12-29T08:17:59;99824.38;;;8.62;100.00
7168;BME280;3625;51.762;14.320;2022-12-29T08:20:27;99746.19;;;8.24;100.00
7168;BME280;3625;51.762;14.320;2022-12-29T08:22:57;99832.25;;;8.63;100.00
7168;BME280;3625;51.762;14.320;2022-12-29T08:25:25;99822.50;;;8.65;100.00
7168;BME280;3625;51.762;14.320;2022-12-29T08:27:54;99822.44;;;8.68;100.00
7168;BME280;3625;51.762;14.320;2022-12-29T08:30:22;99801.59;;;8.58;100.00
7168;BME280;3625;51.762;14.320;2022-12-29T08:32:51;99825.88;;;8.72;100.00
7168;BME280;3625;51.762;14.320;2022-12-29T08:35:20;99829.44;;;8.69;100.00
7168;BME280;3625;51.762;14.320;2022-12-29T08:37:49;99832.16;;;8.66;100.00
7168;BME280;3625;51.762;14.320;2022-12-29T08:40:19;99824.34;;;8.63;100.00
7168;BME280;3625;51.762;14.320;2022-12-29T08:42:47;99839.28;;;8.63;100.00
7168;BME280;3625;51.762;14.320;2022-12-29T08:45:16;99844.34;;;8.72;100.00
7168;BME280;3625;51.762;14.320;2022-12-29T08:47:45;99847.66;;;8.80;100.00
7168;BME280;3625;51.762;14.320;2022-12-29T08:50:13;99849.09;;;8.92;100.00
7168;BME280;3625;51.762;14.320;2022-12-29T08:52:42;99777.81;;;8.61;100.00
7168;BME280;3625;51.762;14.320;2022-12-29T08:55:11;99787.22;;;8.71;100.00
7168;BME280;3625;51.762;14.320;2022-12-29T08:57:41;99814.88;;;8.90;100.00
7168;BME280;3625;51.762;14.320;2022-12-29T09:00:15;99837.44;;;9.00;100.00
7168;BME280;3625;51.762;14.320;2022-12-29T09:02:44;99834.00;;;8.98;100.00
7168;BME280;3625;51.762;14.320;2022-12-29T09:05:14;99787.19;;;8.73;100.00
7168;BME280;3625;51.762;14.320;2022-12-29T09:07:43;99771.66;;;8.60;100.00
7168;BME280;3625;51.762;14.320;2022-12-29T09:10:11;99819.69;;;9.07;100.00
7168;BME280;3625;51.762;14.320;2022-12-29T09:12:41;99835.13;;;9.22;100.00
7168;BME280;3625;51.762;14.320;2022-12-29T09:15:10;99769.00;;;8.96;100.00
7168;BME280;3625;51.762;14.320;2022-12-29T09:17:40;99737.75;;;8.81;100.00
7168;BME280;3625;51.762;14.320;2022-12-29T09:20:17;99843.94;;;9.54;100.00
7168;BME280;3625;51.762;14.320;2022-12-29T09:22:47;99833.75;;;9.71;100.00
7168;BME280;3625;51.762;14.320;2022-12-29T09:25:16;99789.94;;;9.64;100.00
7168;BME280;3625;51.762;14.320;2022-12-29T09:28:31;99836.16;;;10.09;100.00
7168;BME280;3625;51.762;14.320;2022-12-29T09:31:00;99819.31;;;10.12;100.00
7168;BME280;3625;51.762;14.320;2022-12-29T09:33:29;99839.56;;;10.42;100.00
7168;BME280;3625;51.762;14.320;2022-12-29T09:36:00;99839.00;;;10.59;100.00
7168;BME280;3625;51.762;14.320;2022-12-29T09:38:30;99840.84;;;10.83;100.00
7168;BME280;3625;51.762;14.320;2022-12-29T09:41:05;99832.63;;;11.17;100.00
7168;BME280;3625;51.762;14.320;2022-12-29T09:43:59;99830.16;;;11.38;100.00
7168;BME280;3625;51.762;14.320;2022-12-29T09:46:35;99838.19;;;11.34;100.00
7168;BME280;3625;51.762;14.320;2022-12-29T09:49:22;99825.38;;;11.24;100.00
7168;BME280;3625;51.762;14.320;2022-12-29T09:52:00;99640.03;;;10.26;100.00
7168;BME280;3625;51.762;14.320;2022-12-29T09:54:41;99840.38;;;11.48;100.00
7168;BME280;3625;51.762;14.320;2022-12-29T09:57:26;99703.63;;;10.73;100.00
7168;BME280;3625;51.762;14.320;2022-12-29T10:00:10;99827.50;;;11.62;100.00
7168;BME280;3625;51.762;14.320;2022-12-29T10:02:46;99626.19;;;10.44;100.00
7168;BME280;3625;51.762;14.320;2022-12-29T10:05:33;99811.00;;;11.54;100.00
7168;BME280;3625;51.762;14.320;2022-12-29T10:08:30;99668.78;;;10.62;100.00
7168;BME280;3625;51.762;14.320;2022-12-29T10:11:14;99800.59;;;11.50;100.00
7168;BME280;3625;51.762;14.320;2022-12-29T10:14:12;99780.75;;;11.37;100.00
7168;BME280;3625;51.762;14.320;2022-12-29T10:16:55;99816.75;;;11.67;100.00
7168;BME280;3625;51.762;14.320;2022-12-29T10:19:43;99546.78;;;9.96;100.00
7168;BME280;3625;51.762;14.320;2022-12-29T10:22:35;99812.34;;;11.66;100.00
7168;BME280;3625;51.762;14.320;2022-12-29T10:25:16;99776.47;;;11.57;100.00
7168;BME280;3625;51.762;14.320;2022-12-29T10:27:49;99801.56;;;11.70;100.00
7168;BME280;3625;51.762;14.320;2022-12-29T10:30:18;99794.22;;;11.79;100.00
7168;BME280;3625;51.762;14.320;2022-12-29T10:32:52;99796.38;;;11.92;100.00
7168;BME280;3625;51.762;14.320;2022-12-29T10:35:26;99789.09;;;11.97;100.00
7168;BME280;3625;51.762;14.320;2022-12-29T10:38:04;99791.59;;;12.02;100.00
7168;BME280;3625;51.762;14.320;2022-12-29T10:40:43;99775.16;;;11.92;100.00
7168;BME280;3625;51.762;14.320;2022-12-29T10:43:25;99769.00;;;11.92;100.00
7168;BME280;3625;51.762;14.320;2022-12-29T10:45:57;99738.94;;;11.68;100.00
7168;BME280;3625;51.762;14.320;2022-12-29T10:48:32;99754.31;;;11.83;98.88
7168;BME280;3625;51.762;14.320;2022-12-29T10:51:05;99802.75;;;12.10;99.26
7168;BME280;3625;51.762;14.320;2022-12-29T10:53:43;99751.53;;;11.86;99.03
7168;BME280;3625;51.762;14.320;2022-12-29T10:56:27;99793.56;;;12.19;98.28
7168;BME280;3625;51.762;14.320;2022-12-29T10:59:06;99797.81;;;12.23;98.06
7168;BME280;3625;51.762;14.320;2022-12-29T11:01:55;99775.03;;;12.19;96.84
7168;BME280;3625;51.762;14.320;2022-12-29T11:04:54;99798.31;;;12.32;96.92
7168;BME280;3625;51.762;14.320;2022-12-29T11:07:24;99797.28;;;12.36;95.89
7168;BME280;3625;51.762;14.320;2022-12-29T11:09:54;99741.41;;;12.19;95.42
7168;BME280;3625;51.762;14.320;2022-12-29T11:12:26;99687.69;;;11.92;95.45
7168;BME280;3625;51.762;14.320;2022-12-29T11:15:13;99785.28;;;12.48;95.12
7168;BME280;3625;51.762;14.320;2022-12-29T11:17:48;99790.28;;;12.56;94.08
7168;BME280;3625;51.762;14.320;2022-12-29T11:20:31;99732.13;;;12.29;93.93
7168;BME280;3625;51.762;14.320;2022-12-29T11:23:02;99751.72;;;12.47;94.03
7168;BME280;3625;51.762;14.320;2022-12-29T11:25:31;99778.50;;;12.63;93.55
7168;BME280;3625;51.762;14.320;2022-12-29T11:28:03;99773.00;;;12.67;93.58
7168;BME280;3625;51.762;14.320;2022-12-29T11:30:40;99678.75;;;12.37;92.17
7168;BME280;3625;51.762;14.320;2022-12-29T11:33:09;99606.34;;;12.15;89.88
7168;BME280;3625;51.762;14.320;2022-12-29T11:35:43;99682.16;;;12.81;89.90
7168;BME280;3625;51.762;14.320;2022-12-29T11:38:20;99767.34;;;13.37;87.29
7168;BME280;3625;51.762;14.320;2022-12-29T11:40:50;99730.84;;;13.22;87.01
7168;BME280;3625;51.762;14.320;2022-12-29T11:43:24;99763.34;;;13.47;87.01
7168;BME280;3625;51.762;14.320;2022-12-29T11:45:57;99700.25;;;13.32;86.38
7168;BME280;3625;51.762;14.320;2022-12-29T11:48:31;99689.63;;;13.32;84.58
7168;BME280;3625;51.762;14.320;2022-12-29T11:51:03;99735.44;;;13.57;83.84
7168;BME280;3625;51.762;14.320;2022-12-29T11:53:42;99711.63;;;13.54;83.80
7168;BME280;3625;51.762;14.320;2022-12-29T11:56:16;99730.44;;;13.69;83.80
7168;BME280;3625;51.762;14.320;2022-12-29T11:58:46;99662.44;;;13.27;82.52
7168;BME280;3625;51.762;14.320;2022-12-29T12:01:25;99711.91;;;13.67;
7168;BME280;3625;51.762;14.320;2022-12-29T12:04:03;99662.06;;;13.35;82.27
7168;BME280;3625;51.762;14.320;2022-12-29T12:06:46;99690.50;;;13.51;82.03
7168;BME280;3625;51.762;14.320;2022-12-29T12:09:25;99749.31;;;13.83;81.72
7168;BME280;3625;51.762;14.320;2022-12-29T12:11:57;99666.38;;;13.37;83.04
7168;BME280;3625;51.762;14.320;2022-12-29T12:14:37;99687.06;;;13.49;83.47
7168;BME280;3625;51.762;14.320;2022-12-29T12:17:51;99744.56;;;13.89;81.68
7168;BME280;3625;51.762;14.320;2022-12-29T12:20:26;99721.97;;;13.79;82.30
7168;BME280;3625;51.762;14.320;2022-12-29T12:23:09;99710.28;;;13.83;81.71
7168;BME280;3625;51.762;14.320;2022-12-29T12:25:54;99756.59;;;14.15;81.34
7168;BME280;3625;51.762;14.320;2022-12-29T12:28:39;99742.47;;;13.96;80.38
7168;BME280;3625;51.762;14.320;2022-12-29T12:31:26;99732.91;;;13.92;81.56
7168;BME280;3625;51.762;14.320;2022-12-29T12:34:03;99748.22;;;13.87;81.59
7168;BME280;3625;51.762;14.320;2022-12-29T12:37:15;99743.31;;;13.78;82.74
7168;BME280;3625;51.762;14.320;2022-12-29T12:40:20;99738.31;;;13.72;83.48
7168;BME280;3625;51.762;14.320;2022-12-29T12:43:11;99720.13;;;13.63;83.81
7168;BME280;3625;51.762;14.320;2022-12-29T12:45:56;99705.88;;;13.45;83.97
7168;BME280;3625;51.762;14.320;2022-12-29T12:48:48;99731.47;;;13.66;84.04
7168;BME280;3625;51.762;14.320;2022-12-29T12:51:31;99672.56;;;13.38;83.41
7168;BME280;3625;51.762;14.320;2022-12-29T12:54:20;99737.31;;;13.74;82.88
7168;BME280;3625;51.762;14.320;2022-12-29T12:57:12;99711.28;;;13.62;83.40
7168;BME280;3625;51.762;14.320;2022-12-29T13:00:00;99746.16;;;13.75;83.56
7168;BME280;3625;51.762;14.320;2022-12-29T13:02:43;99683.47;;;13.32;83.48
7168;BME280;3625;51.762;14.320;2022-12-29T13:05:50;99728.03;;;13.64;84.16
7168;BME280;3625;51.762;14.320;2022-12-29T13:12:05;99731.41;;;13.49;84.22
7168;BME280;3625;51.762;14.320;2022-12-29T13:14:49;99755.16;;;13.52;84.43
7168;BME280;3625;51.762;14.320;2022-12-29T13:17:46;99748.03;;;13.52;84.67
7168;BME280;3625;51.762;14.320;2022-12-29T13:20:27;99682.38;;;13.17;84.92
7168;BME280;3625;51.762;14.320;2022-12-29T13:23:08;99673.47;;;12.98;85.12
7168;BME280;3625;51.762;14.320;2022-12-29T13:25:46;99710.66;;;13.18;85.80
7168;BME280;3625;51.762;14.320;2022-12-29T13:28:25;99765.34;;;13.42;85.70
7168;BME280;3625;51.762;14.320;2022-12-29T13:31:04;99769.19;;;13.35;86.06
7168;BME280;3625;51.762;14.320;2022-12-29T13:33:48;99767.88;;;13.25;86.42
7168;BME280;3625;51.762;14.320;2022-12-29T13:36:26;99717.59;;;12.80;86.89
7168;BME280;3625;51.762;14.320;2022-12-29T13:39:10;99667.75;;;12.46;87.98
7168;BME280;3625;51.762;14.320;2022-12-29T13:41:51;99754.25;;;12.92;88.67
7168;BME280;3625;51.762;14.320;2022-12-29T13:44:27;99709.50;;;12.63;88.03
7168;BME280;3625;51.762;14.320;2022-12-29T13:47:23;99715.81;;;12.60;88.52
7168;BME280;3625;51.762;14.320;2022-12-29T13:49:57;99768.19;;;12.77;88.79
7168;BME280;3625;51.762;14.320;2022-12-29T13:52:36;99758.75;;;12.70;89.32
7168;BME280;3625;51.762;14.320;2022-12-29T13:55:26;99704.75;;;12.29;89.53
7168;BME280;3625;51.762;14.320;2022-12-29T13:58:03;99622.03;;;11.77;89.87
7168;BME280;3625;51.762;14.320;2022-12-29T14:00:50;99714.97;;;12.38;89.90
7168;BME280;3625;51.762;14.320;2022-12-29T14:03:48;99777.66;;;12.62;89.99
7168;BME280;3625;51.762;14.320;2022-12-29T14:06:23;99771.34;;;12.65;89.69
7168;BME280;3625;51.762;14.320;2022-12-29T14:08:59;99736.69;;;12.47;89.99
7168;BME280;3625;51.762;14.320;2022-12-29T14:11:35;99774.31;;;12.57;90.28
7168;BME280;3625;51.762;14.320;2022-12-29T14:14:16;99767.22;;;12.58;90.14